sensor_id;sensor_type;location;lat;lon;timestamp;pressure;altitude;pressure_sealevel;temperature;humidity
72685;BME280;61365;52.162;4.500;2023-02-11T00:01:10;103347.72;;;8.20;82.15
72685;BME280;61365;52.162;4.500;2023-02-11T00:03:43;103347.78;;;8.22;82.13
72685;BME280;61365;52.162;4.500;2023-02-11T00:06:10;103357.16;;;8.17;81.34
72685;BME280;61365;52.162;4.500;2023-02-11T00:08:37;103354.53;;;8.17;81.38
72685;BME280;61365;52.162;4.500;2023-02-11T00:11:04;103353.13;;;8.41;80.52
72685;BME280;61365;52.162;4.500;2023-02-11T00:13:30;103344.38;;;8.05;81.90
72685;BME280;61365;52.162;4.500;2023-02-11T00:15:57;103346.91;;;8.21;82.74
72685;BME280;61365;52.162;4.500;2023-02-11T00:18:23;103347.06;;;8.06;82.43
72685;BME280;61365;52.162;4.500;2023-02-11T00:20:50;103355.53;;;8.19;82.21
72685;BME280;61365;52.162;4.500;2023-02-11T00:23:16;103345.41;;;8.08;82.17
72685;BME280;61365;52.162;4.500;2023-02-11T00:25:44;103335.47;;;8.19;82.11
72685;BME280;61365;52.162;4.500;2023-02-11T00:28:11;103331.22;;;8.21;82.97
72685;BME280;61365;52.162;4.500;2023-02-11T00:30:37;103324.94;;;8.18;82.43
72685;BME280;61365;52.162;4.500;2023-02-11T00:33:04;103322.19;;;8.15;81.41
72685;BME280;61365;52.162;4.500;2023-02-11T00:35:30;103329.28;;;8.17;82.76
72685;BME280;61365;52.162;4.500;2023-02-11T00:37:56;103327.25;;;8.11;81.27
72685;BME280;61365;52.162;4.500;2023-02-11T00:40:23;103344.28;;;8.03;82.29
72685;BME280;61365;52.162;4.500;2023-02-11T00:42:49;103350.22;;;7.82;81.71
72685;BME280;61365;52.162;4.500;2023-02-11T00:45:15;103344.88;;;7.97;81.76
72685;BME280;61365;52.162;4.500;2023-02-11T00:47:42;103343.78;;;8.29;80.58
72685;BME280;61365;52.162;4.500;2023-02-11T00:50:08;103348.69;;;8.04;80.43
72685;BME280;61365;52.162;4.500;2023-02-11T00:52:35;103348.19;;;8.11;81.03
72685;BME280;61365;52.162;4.500;2023-02-11T00:55:01;103339.72;;;8.17;81.03
72685;BME280;61365;52.162;4.500;2023-02-11T00:57:27;103341.16;;;8.10;81.30
72685;BME280;61365;52.162;4.500;2023-02-11T00:59:54;103348.84;;;8.07;82.19
72685;BME280;61365;52.162;4.500;2023-02-11T01:02:20;103345.63;;;8.13;81.52
72685;BME280;61365;52.162;4.500;2023-02-11T01:04:46;103350.13;;;8.16;81.18
72685;BME280;61365;52.162;4.500;2023-02-11T01:07:13;103340.47;;;7.96;81.33
72685;BME280;61365;52.162;4.500;2023-02-11T01:09:39;103332.19;;;8.05;81.72
72685;BME280;61365;52.162;4.500;2023-02-11T01:12:05;103335.56;;;8.03;82.86
72685;BME280;61365;52.162;4.500;2023-02-11T01:14:32;103336.50;;;7.87;82.18
72685;BME280;61365;52.162;4.500;2023-02-11T01:16:58;103331.81;;;7.97;81.30
72685;BME280;61365;52.162;4.500;2023-02-11T01:19:24;103332.09;;;7.86;82.05
72685;BME280;61365;52.162;4.500;2023-02-11T01:21:51;103340.16;;;7.90;83.78
72685;BME280;61365;52.162;4.500;2023-02-11T01:24:17;103340.59;;;7.81;82.82
72685;BME280;61365;52.162;4.500;2023-02-11T01:26:43;103331.22;;;7.69;83.64
72685;BME280;61365;52.162;4.500;2023-02-11T01:29:10;103317.00;;;7.63;83.83
72685;BME280;61365;52.162;4.500;2023-02-11T01:31:36;103323.38;;;7.69;85.13
72685;BME280;61365;52.162;4.500;2023-02-11T01:34:02;103318.66;;;7.61;84.55
72685;BME280;61365;52.162;4.500;2023-02-11T01:36:28;103323.16;;;7.47;85.19
72685;BME280;61365;52.162;4.500;2023-02-11T01:38:55;103317.78;;;7.44;86.15
72685;BME280;61365;52.162;4.500;2023-02-11T01:41:21;103315.97;;;7.60;85.77
72685;BME280;61365;52.162;4.500;2023-02-11T01:43:48;103312.97;;;7.52;85.13
72685;BME280;61365;52.162;4.500;2023-02-11T01:46:35;103303.25;;;7.49;86.52
72685;BME280;61365;52.162;4.500;2023-02-11T01:49:08;103309.72;;;7.40;86.05
72685;BME280;61365;52.162;4.500;2023-02-11T01:51:58;103308.06;;;7.42;85.82
72685;BME280;61365;52.162;4.500;2023-02-11T01:54:41;103310.06;;;7.29;86.52
72685;BME280;61365;52.162;4.500;2023-02-11T01:57:31;103311.13;;;7.16;87.35
72685;BME280;61365;52.162;4.500;2023-02-11T02:05:31;103329.81;;;7.24;87.78
72685;BME280;61365;52.162;4.500;2023-02-11T02:08:25;103322.63;;;7.20;86.91
72685;BME280;61365;52.162;4.500;2023-02-11T02:11:27;103309.56;;;7.20;87.18
72685;BME280;61365;52.162;4.500;2023-02-11T02:13:54;103299.13;;;7.20;87.26
72685;BME280;61365;52.162;4.500;2023-02-11T02:16:21;103296.56;;;7.21;86.43
72685;BME280;61365;52.162;4.500;2023-02-11T02:36:37;103329.16;;;6.95;89.50
72685;BME280;61365;52.162;4.500;2023-02-11T02:39:20;103328.09;;;6.91;90.25
72685;BME280;61365;52.162;4.500;2023-02-11T02:41:52;103331.19;;;7.01;89.91
72685;BME280;61365;52.162;4.500;2023-02-11T02:44:20;103318.06;;;7.16;89.51
72685;BME280;61365;52.162;4.500;2023-02-11T02:46:46;103310.69;;;7.09;90.10
72685;BME280;61365;52.162;4.500;2023-02-11T02:49:14;103314.63;;;7.17;89.88
72685;BME280;61365;52.162;4.500;2023-02-11T02:55:05;103317.41;;;7.03;90.52
72685;BME280;61365;52.162;4.500;2023-02-11T03:00:50;103316.44;;;7.01;90.79
72685;BME280;61365;52.162;4.500;2023-02-11T03:03:23;103319.44;;;6.93;90.47
72685;BME280;61365;52.162;4.500;2023-02-11T03:08:38;103320.41;;;6.95;91.26
72685;BME280;61365;52.162;4.500;2023-02-11T03:11:09;103325.38;;;6.90;90.77
72685;BME280;61365;52.162;4.500;2023-02-11T03:13:38;103312.50;;;6.93;90.50
72685;BME280;61365;52.162;4.500;2023-02-11T03:16:11;103315.09;;;6.76;91.03
72685;BME280;61365;52.162;4.500;2023-02-11T03:18:48;103312.66;;;6.80;91.94
72685;BME280;61365;52.162;4.500;2023-02-11T03:21:18;103321.78;;;6.88;91.85
72685;BME280;61365;52.162;4.500;2023-02-11T03:23:52;103317.78;;;6.78;91.41
72685;BME280;61365;52.162;4.500;2023-02-11T03:26:51;103317.44;;;6.72;91.98
72685;BME280;61365;52.162;4.500;2023-02-11T03:32:22;103313.72;;;6.83;92.03
72685;BME280;61365;52.162;4.500;2023-02-11T03:38:00;103296.50;;;6.87;91.71
72685;BME280;61365;52.162;4.500;2023-02-11T03:40:36;103300.38;;;6.62;92.57
72685;BME280;61365;52.162;4.500;2023-02-11T03:43:12;103290.81;;;6.78;92.74
72685;BME280;61365;52.162;4.500;2023-02-11T03:45:49;103287.50;;;6.65;92.44
72685;BME280;61365;52.162;4.500;2023-02-11T03:48:28;103288.50;;;6.67;93.46
72685;BME280;61365;52.162;4.500;2023-02-11T03:51:00;103302.00;;;6.60;92.51
72685;BME280;61365;52.162;4.500;2023-02-11T03:53:30;103300.56;;;6.65;92.41
72685;BME280;61365;52.162;4.500;2023-02-11T03:55:59;103302.59;;;6.71;93.68
72685;BME280;61365;52.162;4.500;2023-02-11T03:58:30;103313.19;;;6.57;93.79
72685;BME280;61365;52.162;4.500;2023-02-11T04:00:56;103292.97;;;6.70;93.54
72685;BME280;61365;52.162;4.500;2023-02-11T04:03:22;103295.09;;;6.77;93.75
72685;BME280;61365;52.162;4.500;2023-02-11T04:05:49;103295.75;;;6.73;93.69
72685;BME280;61365;52.162;4.500;2023-02-11T04:08:15;103286.63;;;6.81;93.63
72685;BME280;61365;52.162;4.500;2023-02-11T04:10:41;103283.63;;;6.73;93.34
72685;BME280;61365;52.162;4.500;2023-02-11T04:13:08;103284.09;;;6.83;94.12
72685;BME280;61365;52.162;4.500;2023-02-11T04:15:34;103287.38;;;6.79;93.97
72685;BME280;61365;52.162;4.500;2023-02-11T04:18:00;103288.84;;;6.73;93.54
72685;BME280;61365;52.162;4.500;2023-02-11T04:20:28;103291.63;;;6.76;93.34
72685;BME280;61365;52.162;4.500;2023-02-11T04:22:55;103288.84;;;6.90;93.19
72685;BME280;61365;52.162;4.500;2023-02-11T04:25:22;103289.47;;;6.86;93.10
72685;BME280;61365;52.162;4.500;2023-02-11T04:27:48;103291.44;;;6.90;92.91
72685;BME280;61365;52.162;4.500;2023-02-11T04:30:14;103286.81;;;7.01;92.61
72685;BME280;61365;52.162;4.500;2023-02-11T04:32:41;103289.75;;;7.07;92.80
72685;BME280;61365;52.162;4.500;2023-02-11T04:35:07;103301.66;;;7.02;92.85
72685;BME280;61365;52.162;4.500;2023-02-11T04:37:33;103293.66;;;6.82;92.51
72685;BME280;61365;52.162;4.500;2023-02-11T04:40:00;103298.22;;;6.86;93.34
72685;BME280;61365;52.162;4.500;2023-02-11T04:42:27;103292.59;;;6.95;93.67
72685;BME280;61365;52.162;4.500;2023-02-11T04:44:53;103293.00;;;7.03;93.68
72685;BME280;61365;52.162;4.500;2023-02-11T04:47:19;103291.16;;;7.00;93.91
72685;BME280;61365;52.162;4.500;2023-02-11T04:49:46;103285.16;;;7.03;92.90
72685;BME280;61365;52.162;4.500;2023-02-11T04:52:12;103281.50;;;6.99;93.37
72685;BME280;61365;52.162;4.500;2023-02-11T04:54:38;103284.47;;;7.05;93.05
72685;BME280;61365;52.162;4.500;2023-02-11T04:57:05;103282.50;;;7.01;93.43
72685;BME280;61365;52.162;4.500;2023-02-11T04:59:31;103281.75;;;7.04;93.11
72685;BME280;61365;52.162;4.500;2023-02-11T05:01:58;103276.69;;;6.90;92.64
72685;BME280;61365;52.162;4.500;2023-02-11T05:04:24;103276.69;;;6.90;93.85
72685;BME280;61365;52.162;4.500;2023-02-11T05:06:50;103274.75;;;6.86;94.25
72685;BME280;61365;52.162;4.500;2023-02-11T05:09:17;103286.06;;;6.87;94.25
72685;BME280;61365;52.162;4.500;2023-02-11T05:11:43;103289.47;;;6.86;93.89
72685;BME280;61365;52.162;4.500;2023-02-11T05:14:10;103283.16;;;6.81;94.17
72685;BME280;61365;52.162;4.500;2023-02-11T05:16:36;103293.41;;;6.78;94.73
72685;BME280;61365;52.162;4.500;2023-02-11T05:19:03;103297.88;;;6.80;94.58
72685;BME280;61365;52.162;4.500;2023-02-11T05:21:29;103294.28;;;6.78;95.61
72685;BME280;61365;52.162;4.500;2023-02-11T05:23:56;103316.50;;;6.86;95.04
72685;BME280;61365;52.162;4.500;2023-02-11T05:26:23;103317.47;;;6.88;95.16
72685;BME280;61365;52.162;4.500;2023-02-11T05:28:49;103325.31;;;6.88;95.30
72685;BME280;61365;52.162;4.500;2023-02-11T05:31:16;103318.94;;;7.00;94.77
72685;BME280;61365;52.162;4.500;2023-02-11T05:33:43;103330.94;;;6.96;94.48
72685;BME280;61365;52.162;4.500;2023-02-11T05:36:11;103330.72;;;6.91;94.91
72685;BME280;61365;52.162;4.500;2023-02-11T05:38:38;103324.91;;;6.97;94.61
72685;BME280;61365;52.162;4.500;2023-02-11T05:41:05;103330.84;;;6.95;94.84
72685;BME280;61365;52.162;4.500;2023-02-11T05:43:32;103321.25;;;7.10;94.81
72685;BME280;61365;52.162;4.500;2023-02-11T05:46:00;103331.19;;;7.01;94.50
72685;BME280;61365;52.162;4.500;2023-02-11T05:48:26;103321.66;;;7.01;94.28
72685;BME280;61365;52.162;4.500;2023-02-11T05:50:52;103319.22;;;7.04;94.39
72685;BME280;61365;52.162;4.500;2023-02-11T05:53:19;103320.16;;;7.06;95.15
72685;BME280;61365;52.162;4.500;2023-02-11T05:55:45;103324.91;;;7.14;95.46
72685;BME280;61365;52.162;4.500;2023-02-11T05:58:12;103330.53;;;7.05;94.92
72685;BME280;61365;52.162;4.500;2023-02-11T06:00:38;103325.75;;;7.29;94.85
72685;BME280;61365;52.162;4.500;2023-02-11T06:03:05;103317.25;;;7.17;94.02
72685;BME280;61365;52.162;4.500;2023-02-11T06:05:31;103319.19;;;7.21;93.93
72685;BME280;61365;52.162;4.500;2023-02-11T06:07:57;103325.81;;;7.14;94.35
72685;BME280;61365;52.162;4.500;2023-02-11T06:10:24;103321.41;;;7.13;94.91
72685;BME280;61365;52.162;4.500;2023-02-11T06:12:50;103322.28;;;7.47;93.80
72685;BME280;61365;52.162;4.500;2023-02-11T06:15:17;103316.28;;;7.31;93.83
72685;BME280;61365;52.162;4.500;2023-02-11T06:17:43;103324.56;;;7.41;93.34
72685;BME280;61365;52.162;4.500;2023-02-11T06:20:10;103322.69;;;7.21;93.79
72685;BME280;61365;52.162;4.500;2023-02-11T06:22:37;103321.06;;;7.24;94.12
72685;BME280;61365;52.162;4.500;2023-02-11T06:25:03;103327.19;;;7.41;94.54
72685;BME280;61365;52.162;4.500;2023-02-11T06:27:30;103314.94;;;7.40;93.09
72685;BME280;61365;52.162;4.500;2023-02-11T06:29:57;103313.97;;;7.38;93.38
72685;BME280;61365;52.162;4.500;2023-02-11T06:32:23;103307.94;;;7.22;93.44
72685;BME280;61365;52.162;4.500;2023-02-11T06:34:51;103311.44;;;7.22;94.16
72685;BME280;61365;52.162;4.500;2023-02-11T06:37:17;103309.41;;;7.17;94.69
72685;BME280;61365;52.162;4.500;2023-02-11T06:39:44;103332.00;;;7.33;94.24
72685;BME280;61365;52.162;4.500;2023-02-11T06:42:10;103321.97;;;7.24;94.09
72685;BME280;61365;52.162;4.500;2023-02-11T06:44:36;103319.44;;;7.26;93.82
72685;BME280;61365;52.162;4.500;2023-02-11T06:47:03;103319.28;;;7.22;94.28
72685;BME280;61365;52.162;4.500;2023-02-11T06:49:30;103322.78;;;7.23;94.74
72685;BME280;61365;52.162;4.500;2023-02-11T06:51:56;103320.25;;;7.25;93.80
72685;BME280;61365;52.162;4.500;2023-02-11T06:54:23;103313.72;;;7.33;93.18
72685;BME280;61365;52.162;4.500;2023-02-11T06:56:49;103315.59;;;7.35;93.17
72685;BME280;61365;52.162;4.500;2023-02-11T06:59:17;103329.78;;;7.41;93.27
72685;BME280;61365;52.162;4.500;2023-02-11T07:01:46;103324.75;;;7.27;93.68
72685;BME280;61365;52.162;4.500;2023-02-11T07:04:12;103332.34;;;7.39;93.99
72685;BME280;61365;52.162;4.500;2023-02-11T07:06:40;103333.81;;;7.34;93.39
72685;BME280;61365;52.162;4.500;2023-02-11T07:09:07;103332.19;;;7.36;93.32
72685;BME280;61365;52.162;4.500;2023-02-11T07:11:34;103333.88;;;7.35;93.32
72685;BME280;61365;52.162;4.500;2023-02-11T07:14:03;103336.97;;;7.45;93.60
72685;BME280;61365;52.162;4.500;2023-02-11T07:16:34;103347.44;;;7.45;93.71
72685;BME280;61365;52.162;4.500;2023-02-11T07:19:01;103348.81;;;7.55;92.64
72685;BME280;61365;52.162;4.500;2023-02-11T07:21:27;103350.94;;;7.62;92.37
72685;BME280;61365;52.162;4.500;2023-02-11T07:23:53;103353.22;;;7.56;92.40
72685;BME280;61365;52.162;4.500;2023-02-11T07:26:22;103352.34;;;7.55;92.65
72685;BME280;61365;52.162;4.500;2023-02-11T07:28:49;103345.22;;;7.53;93.31
72685;BME280;61365;52.162;4.500;2023-02-11T07:31:24;103350.50;;;7.71;91.93
72685;BME280;61365;52.162;4.500;2023-02-11T07:33:54;103363.41;;;7.68;92.44
72685;BME280;61365;52.162;4.500;2023-02-11T07:36:23;103363.56;;;7.71;92.24
72685;BME280;61365;52.162;4.500;2023-02-11T07:38:49;103366.88;;;7.85;91.03
72685;BME280;61365;52.162;4.500;2023-02-11T07:41:18;103360.69;;;7.82;90.52
72685;BME280;61365;52.162;4.500;2023-02-11T07:43:47;103369.78;;;7.73;91.42
72685;BME280;61365;52.162;4.500;2023-02-11T07:46:19;103362.69;;;7.88;92.14
72685;BME280;61365;52.162;4.500;2023-02-11T07:48:47;103356.50;;;7.86;91.18
72685;BME280;61365;52.162;4.500;2023-02-11T07:51:25;103359.66;;;7.97;90.87
72685;BME280;61365;52.162;4.500;2023-02-11T07:53:54;103360.94;;;8.05;90.23
72685;BME280;61365;52.162;4.500;2023-02-11T07:56:24;103363.13;;;8.14;88.66
72685;BME280;61365;52.162;4.500;2023-02-11T07:58:51;103359.94;;;8.56;87.82
72685;BME280;61365;52.162;4.500;2023-02-11T08:01:21;103365.16;;;8.38;88.65
72685;BME280;61365;52.162;4.500;2023-02-11T08:03:50;103357.00;;;8.14;89.51
72685;BME280;61365;52.162;4.500;2023-02-11T08:06:19;103361.44;;;8.51;88.56
72685;BME280;61365;52.162;4.500;2023-02-11T08:08:48;103363.09;;;8.49;88.09
72685;BME280;61365;52.162;4.500;2023-02-11T08:11:20;103368.97;;;8.26;88.57
72685;BME280;61365;52.162;4.500;2023-02-11T08:13:51;103360.56;;;8.34;89.24
72685;BME280;61365;52.162;4.500;2023-02-11T08:16:21;103370.06;;;8.48;89.02
72685;BME280;61365;52.162;4.500;2023-02-11T08:18:54;103371.22;;;8.55;87.67
72685;BME280;61365;52.162;4.500;2023-02-11T08:21:23;103365.50;;;8.46;88.06
72685;BME280;61365;52.162;4.500;2023-02-11T08:23:50;103369.72;;;8.42;88.31
72685;BME280;61365;52.162;4.500;2023-02-11T08:26:23;103369.09;;;8.48;88.71
72685;BME280;61365;52.162;4.500;2023-02-11T08:28:52;103376.69;;;8.41;87.76
72685;BME280;61365;52.162;4.500;2023-02-11T08:31:22;103380.34;;;8.45;88.38
72685;BME280;61365;52.162;4.500;2023-02-11T08:33:51;103390.44;;;8.74;86.69
72685;BME280;61365;52.162;4.500;2023-02-11T08:36:22;103392.69;;;8.66;87.46
72685;BME280;61365;52.162;4.500;2023-02-11T08:38:52;103401.97;;;8.59;87.30
72685;BME280;61365;52.162;4.500;2023-02-11T08:41:19;103400.78;;;8.52;87.78
72685;BME280;61365;52.162;4.500;2023-02-11T08:43:46;103406.50;;;8.45;88.45
72685;BME280;61365;52.162;4.500;2023-02-11T08:46:15;103401.06;;;8.59;87.60
72685;BME280;61365;52.162;4.500;2023-02-11T08:48:43;103400.34;;;8.61;87.56
72685;BME280;61365;52.162;4.500;2023-02-11T08:51:19;103405.16;;;8.71;87.02
72685;BME280;61365;52.162;4.500;2023-02-11T08:53:53;103411.00;;;8.66;87.39
72685;BME280;61365;52.162;4.500;2023-02-11T08:56:21;103418.84;;;9.02;86.19
72685;BME280;61365;52.162;4.500;2023-02-11T08:58:49;103415.94;;;8.96;85.83
72685;BME280;61365;52.162;4.500;2023-02-11T09:03:45;103421.78;;;8.90;86.43
72685;BME280;61365;52.162;4.500;2023-02-11T09:06:13;103418.53;;;8.96;85.80
72685;BME280;61365;52.162;4.500;2023-02-11T09:08:43;103422.19;;;8.99;86.28
72685;BME280;61365;52.162;4.500;2023-02-11T09:11:12;103418.84;;;9.02;85.89
72685;BME280;61365;52.162;4.500;2023-02-11T09:13:40;103418.22;;;9.08;85.67
72685;BME280;61365;52.162;4.500;2023-02-11T09:16:12;103421.47;;;9.02;85.63
72685;BME280;61365;52.162;4.500;2023-02-11T09:18:42;103416.44;;;9.07;85.17
72685;BME280;61365;52.162;4.500;2023-02-11T09:21:11;103417.72;;;8.97;85.41
72685;BME280;61365;52.162;4.500;2023-02-11T09:23:38;103422.75;;;8.92;85.86
72685;BME280;61365;52.162;4.500;2023-02-11T09:26:11;103424.91;;;9.01;85.52
72685;BME280;61365;52.162;4.500;2023-02-11T09:28:40;103434.56;;;9.02;85.86
72685;BME280;61365;52.162;4.500;2023-02-11T09:31:08;103430.16;;;9.01;85.44
72685;BME280;61365;52.162;4.500;2023-02-11T09:33:38;103439.03;;;8.86;85.83
72685;BME280;61365;52.162;4.500;2023-02-11T09:36:07;103439.72;;;9.00;86.34
72685;BME280;61365;52.162;4.500;2023-02-11T09:38:34;103439.66;;;8.99;86.05
72685;BME280;61365;52.162;4.500;2023-02-11T09:41:00;103443.09;;;8.98;85.15
72685;BME280;61365;52.162;4.500;2023-02-11T09:43:37;103438.88;;;9.01;86.17
72685;BME280;61365;52.162;4.500;2023-02-11T09:46:18;103443.94;;;9.16;84.45
72685;BME280;61365;52.162;4.500;2023-02-11T09:48:48;103445.75;;;9.18;84.92
72685;BME280;61365;52.162;4.500;2023-02-11T09:51:30;103444.25;;;9.42;83.55
72685;BME280;61365;52.162;4.500;2023-02-11T09:56:55;103452.97;;;9.23;84.50
72685;BME280;61365;52.162;4.500;2023-02-11T09:59:21;103456.00;;;9.51;83.41
72685;BME280;61365;52.162;4.500;2023-02-11T10:01:52;103448.03;;;9.49;82.47
72685;BME280;61365;52.162;4.500;2023-02-11T10:11:01;103469.78;;;9.46;82.54
72685;BME280;61365;52.162;4.500;2023-02-11T10:16:54;103469.41;;;9.57;82.83
72685;BME280;61365;52.162;4.500;2023-02-11T10:23:09;103479.19;;;9.81;81.89
72685;BME280;61365;52.162;4.500;2023-02-11T10:25:45;103477.25;;;9.76;81.91
72685;BME280;61365;52.162;4.500;2023-02-11T10:28:26;103488.38;;;9.71;82.57
72685;BME280;61365;52.162;4.500;2023-02-11T10:36:32;103503.69;;;9.81;81.11
72685;BME280;61365;52.162;4.500;2023-02-11T10:39:17;103496.28;;;9.92;81.10
72685;BME280;61365;52.162;4.500;2023-02-11T10:41:49;103495.53;;;9.95;80.57
72685;BME280;61365;52.162;4.500;2023-02-11T10:44:25;103499.81;;;9.93;81.04
72685;BME280;61365;52.162;4.500;2023-02-11T10:47:19;103495.94;;;9.84;80.59
72685;BME280;61365;52.162;4.500;2023-02-11T10:49:49;103507.84;;;9.96;81.10
72685;BME280;61365;52.162;4.500;2023-02-11T10:52:26;103514.72;;;9.94;80.92
72685;BME280;61365;52.162;4.500;2023-02-11T10:55:15;103517.34;;;9.94;80.46
72685;BME280;61365;52.162;4.500;2023-02-11T10:57:57;103523.06;;;9.85;80.69
72685;BME280;61365;52.162;4.500;2023-02-11T11:00:35;103524.03;;;10.06;80.34
72685;BME280;61365;52.162;4.500;2023-02-11T11:03:20;103521.19;;;10.02;79.72
72685;BME280;61365;52.162;4.500;2023-02-11T11:06:00;103524.41;;;9.95;79.96
72685;BME280;61365;52.162;4.500;2023-02-11T11:08:42;103525.53;;;9.62;80.83
72685;BME280;61365;52.162;4.500;2023-02-11T11:11:20;103533.97;;;9.74;80.91
72685;BME280;61365;52.162;4.500;2023-02-11T11:16:31;103525.28;;;9.75;81.30
72685;BME280;61365;52.162;4.500;2023-02-11T11:19:22;103526.25;;;9.77;81.33
72685;BME280;61365;52.162;4.500;2023-02-11T11:21:52;103531.50;;;9.97;80.62
72685;BME280;61365;52.162;4.500;2023-02-11T11:24:32;103531.16;;;9.89;80.25
72685;BME280;61365;52.162;4.500;2023-02-11T11:27:17;103531.06;;;9.88;80.75
72685;BME280;61365;52.162;4.500;2023-02-11T11:29:49;103529.91;;;10.01;78.88
72685;BME280;61365;52.162;4.500;2023-02-11T11:32:21;103533.84;;;9.71;81.34
72685;BME280;61365;52.162;4.500;2023-02-11T11:34:59;103537.84;;;10.02;80.53
72685;BME280;61365;52.162;4.500;2023-02-11T11:37:30;103536.78;;;9.99;81.19
72685;BME280;61365;52.162;4.500;2023-02-11T11:42:40;103534.47;;;10.05;80.10
72685;BME280;61365;52.162;4.500;2023-02-11T11:47:52;103530.19;;;10.07;80.66
72685;BME280;61365;52.162;4.500;2023-02-11T11:53:35;103520.97;;;10.17;79.44
72685;BME280;61365;52.162;4.500;2023-02-11T11:56:21;103521.69;;;9.93;79.75
72685;BME280;61365;52.162;4.500;2023-02-11T11:58:51;103528.25;;;10.03;80.29
72685;BME280;61365;52.162;4.500;2023-02-11T12:01:29;103528.38;;;10.06;80.26
72685;BME280;61365;52.162;4.500;2023-02-11T12:07:14;103532.31;;;10.16;79.34
72685;BME280;61365;52.162;4.500;2023-02-11T12:13:16;103534.28;;;10.21;79.66
72685;BME280;61365;52.162;4.500;2023-02-11T12:22:00;103537.16;;;10.67;77.47
72685;BME280;61365;52.162;4.500;2023-02-11T12:27:06;103528.31;;;10.65;77.14
72685;BME280;61365;52.162;4.500;2023-02-11T12:30:21;103531.00;;;10.66;76.96
72685;BME280;61365;52.162;4.500;2023-02-11T12:33:24;103525.75;;;10.66;76.69
72685;BME280;61365;52.162;4.500;2023-02-11T12:54:55;103534.81;;;10.54;77.95
72685;BME280;61365;52.162;4.500;2023-02-11T12:57:30;103531.81;;;10.65;77.12
72685;BME280;61365;52.162;4.500;2023-02-11T13:02:58;103528.19;;;10.62;77.15
72685;BME280;61365;52.162;4.500;2023-02-11T13:05:37;103531.81;;;10.65;76.08
72685;BME280;61365;52.162;4.500;2023-02-11T13:08:14;103526.56;;;10.65;76.54
72685;BME280;61365;52.162;4.500;2023-02-11T13:10:53;103531.84;;;10.87;75.72
72685;BME280;61365;52.162;4.500;2023-02-11T13:16:00;103540.03;;;10.94;74.62
72685;BME280;61365;52.162;4.500;2023-02-11T13:19:00;103534.06;;;10.77;75.63
72685;BME280;61365;52.162;4.500;2023-02-11T13:21:59;103538.59;;;10.60;77.37
72685;BME280;61365;52.162;4.500;2023-02-11T13:24:39;103521.84;;;10.78;77.44
72685;BME280;61365;52.162;4.500;2023-02-11T13:35:34;103529.41;;;10.49;77.74
72685;BME280;61365;52.162;4.500;2023-02-11T13:38:20;103520.00;;;10.54;76.24
72685;BME280;61365;52.162;4.500;2023-02-11T13:41:18;103523.81;;;10.84;75.22
72685;BME280;61365;52.162;4.500;2023-02-11T13:43:58;103519.66;;;10.68;76.35
72685;BME280;61365;52.162;4.500;2023-02-11T13:46:45;103522.63;;;10.54;76.75
72685;BME280;61365;52.162;4.500;2023-02-11T13:51:56;103521.19;;;10.84;74.95
72685;BME280;61365;52.162;4.500;2023-02-11T13:54:31;103518.50;;;10.82;75.18
72685;BME280;61365;52.162;4.500;2023-02-11T13:59:46;103514.69;;;10.33;77.99
72685;BME280;61365;52.162;4.500;2023-02-11T14:02:42;103501.59;;;10.75;76.53
72685;BME280;61365;52.162;4.500;2023-02-11T14:05:29;103510.63;;;10.82;76.32
72685;BME280;61365;52.162;4.500;2023-02-11T14:08:21;103525.47;;;10.60;76.01
72685;BME280;61365;52.162;4.500;2023-02-11T14:16:20;103510.59;;;10.59;76.80
72685;BME280;61365;52.162;4.500;2023-02-11T14:26:46;103518.63;;;10.43;77.33
72685;BME280;61365;52.162;4.500;2023-02-11T14:35:14;103513.84;;;10.75;75.56
72685;BME280;61365;52.162;4.500;2023-02-11T14:38:05;103519.41;;;10.40;76.61
72685;BME280;61365;52.162;4.500;2023-02-11T14:43:28;103520.06;;;10.36;76.23
72685;BME280;61365;52.162;4.500;2023-02-11T14:46:00;103512.16;;;10.56;76.13
72685;BME280;61365;52.162;4.500;2023-02-11T14:48:33;103526.69;;;10.47;76.27
72685;BME280;61365;52.162;4.500;2023-02-11T14:51:40;103523.19;;;10.47;75.53
72685;BME280;61365;52.162;4.500;2023-02-11T14:54:14;103529.06;;;10.41;76.99
72685;BME280;61365;52.162;4.500;2023-02-11T14:56:44;103525.13;;;10.31;76.51
72685;BME280;61365;52.162;4.500;2023-02-11T14:59:19;103532.41;;;10.58;75.54
72685;BME280;61365;52.162;4.500;2023-02-11T15:01:49;103531.34;;;10.14;76.38
72685;BME280;61365;52.162;4.500;2023-02-11T15:04:25;103534.25;;;10.20;76.73
72685;BME280;61365;52.162;4.500;2023-02-11T15:07:02;103532.84;;;10.28;77.35
72685;BME280;61365;52.162;4.500;2023-02-11T15:09:50;103541.22;;;10.39;75.35
72685;BME280;61365;52.162;4.500;2023-02-11T15:12:22;103551.09;;;10.25;76.32
72685;BME280;61365;52.162;4.500;2023-02-11T15:14:57;103546.81;;;10.27;76.63
72685;BME280;61365;52.162;4.500;2023-02-11T15:17:29;103551.34;;;10.51;75.98
72685;BME280;61365;52.162;4.500;2023-02-11T15:19:59;103555.69;;;10.31;77.33
72685;BME280;61365;52.162;4.500;2023-02-11T15:22:32;103554.13;;;10.15;77.28
72685;BME280;61365;52.162;4.500;2023-02-11T15:25:09;103551.41;;;10.33;77.69
72685;BME280;61365;52.162;4.500;2023-02-11T15:27:43;103550.53;;;10.32;76.85
72685;BME280;61365;52.162;4.500;2023-02-11T15:32:57;103549.47;;;10.07;77.69
72685;BME280;61365;52.162;4.500;2023-02-11T15:35:30;103547.53;;;10.03;78.15
72685;BME280;61365;52.162;4.500;2023-02-11T15:38:06;103547.84;;;10.11;77.77
72685;BME280;61365;52.162;4.500;2023-02-11T15:40:36;103551.25;;;10.09;77.11
72685;BME280;61365;52.162;4.500;2023-02-11T15:43:07;103555.78;;;10.13;77.57
72685;BME280;61365;52.162;4.500;2023-02-11T15:46:00;103547.91;;;10.13;75.70
72685;BME280;61365;52.162;4.500;2023-02-11T15:48:33;103540.47;;;10.02;77.86
72685;BME280;61365;52.162;4.500;2023-02-11T15:51:32;103546.00;;;10.09;76.07
72685;BME280;61365;52.162;4.500;2023-02-11T15:54:25;103540.75;;;10.09;77.43